createdAt,value
2023-04-17T13:51:52.730Z,13.99
2023-04-17T13:52:52.649Z,14.00
2023-04-17T13:53:52.642Z,13.99
2023-04-17T13:54:52.610Z,14.12
2023-04-17T13:55:52.610Z,14.21
2023-04-17T13:56:52.596Z,14.21
2023-04-17T13:57:52.578Z,14.24
2023-04-17T13:58:52.589Z,14.15
2023-04-17T13:59:52.606Z,14.21
2023-04-17T14:00:52.559Z,14.14
2023-04-17T14:01:52.664Z,14.17
2023-04-17T14:02:52.919Z,14.03
2023-04-17T14:03:52.871Z,13.97
2023-04-17T14:04:52.553Z,13.91
2023-04-17T14:05:52.489Z,13.78
2023-04-17T14:06:52.488Z,13.82
2023-04-17T14:07:52.511Z,13.85
2023-04-17T14:08:52.474Z,13.82
2023-04-17T14:09:52.461Z,13.89
2023-04-17T14:10:52.432Z,13.85
2023-04-17T14:11:52.431Z,14.09
2023-04-17T14:12:52.413Z,14.36
2023-04-17T14:13:52.414Z,14.28
2023-04-17T14:14:52.401Z,14.45
2023-04-17T14:15:52.419Z,14.42
2023-04-17T14:16:52.375Z,14.65
2023-04-17T14:17:52.389Z,14.64
2023-04-17T14:18:52.369Z,14.73
2023-04-17T14:19:52.338Z,14.50
2023-04-17T14:20:52.328Z,14.36
2023-04-17T14:21:52.316Z,14.35
2023-04-17T14:22:52.316Z,14.24
2023-04-17T14:23:52.342Z,14.32
2023-04-17T14:24:52.280Z,14.50
2023-04-17T14:25:52.285Z,14.81
2023-04-17T14:26:52.253Z,15.01
2023-04-17T14:27:52.259Z,15.02
2023-04-17T14:28:52.281Z,15.06
2023-04-17T14:29:52.233Z,15.07
2023-04-17T14:30:52.216Z,15.13
2023-04-17T14:31:52.256Z,15.23
2023-04-17T14:32:52.238Z,15.06
2023-04-17T14:33:52.200Z,14.95
2023-04-17T14:34:52.177Z,14.94
2023-04-17T14:35:52.152Z,14.77
2023-04-17T14:36:52.147Z,14.70
2023-04-17T14:37:52.136Z,14.50
2023-04-17T14:38:52.138Z,14.40
2023-04-17T14:39:52.154Z,14.35
2023-04-17T14:40:52.100Z,14.39
2023-04-17T14:41:52.140Z,14.42
2023-04-17T14:42:54.474Z,14.32
2023-04-17T14:43:52.093Z,14.33
2023-04-17T14:44:52.067Z,14.28
2023-04-17T14:45:52.044Z,14.36
2023-04-17T14:46:52.086Z,14.33
2023-04-17T14:47:52.084Z,14.27
2023-04-17T14:48:55.712Z,14.24
2023-04-17T14:49:51.999Z,14.24
2023-04-17T14:50:51.993Z,14.20
2023-04-17T14:51:51.972Z,14.21
2023-04-17T14:52:51.983Z,14.27
2023-04-17T14:53:52.987Z,14.28
2023-04-17T14:54:51.943Z,14.33
2023-04-17T14:55:51.961Z,14.37
2023-04-17T14:56:51.927Z,14.40
2023-04-17T14:57:51.966Z,14.33
2023-04-17T14:58:51.951Z,14.32
2023-04-17T14:59:51.892Z,14.46
2023-04-17T15:00:51.902Z,14.40
2023-04-17T15:01:51.972Z,14.36
2023-04-17T15:02:52.026Z,14.40
2023-04-17T15:03:52.229Z,14.32
2023-04-17T15:04:51.834Z,14.22
2023-04-17T15:05:51.825Z,14.27
2023-04-17T15:06:51.814Z,14.28
2023-04-17T15:07:51.805Z,14.28
2023-04-17T15:08:51.824Z,14.25
2023-04-17T15:09:51.784Z,14.35
2023-04-17T15:10:51.843Z,14.36
2023-04-17T15:11:51.769Z,14.45
2023-04-17T15:12:51.747Z,14.47
2023-04-17T15:13:51.777Z,14.50
2023-04-17T15:14:51.722Z,14.50
2023-04-17T15:15:51.715Z,14.47
2023-04-17T15:16:51.732Z,14.51
2023-04-17T15:17:51.789Z,14.50
2023-04-17T15:18:51.710Z,14.51
2023-04-17T15:19:51.666Z,14.61
2023-04-17T15:20:51.655Z,14.50
2023-04-17T15:21:51.651Z,14.60
2023-04-17T15:22:51.635Z,14.69
2023-04-17T15:23:51.639Z,14.70
2023-04-17T15:24:51.627Z,14.64
2023-04-17T15:25:51.605Z,14.64
2023-04-17T15:26:51.595Z,14.65
2023-04-17T15:27:51.599Z,14.69
2023-04-17T15:28:51.584Z,14.65
2023-04-17T15:29:51.563Z,14.60
2023-04-17T15:30:51.561Z,14.62
2023-04-17T15:31:51.569Z,14.52
2023-04-17T15:32:51.538Z,14.64
2023-04-17T15:33:51.765Z,14.72
2023-04-17T15:34:51.507Z,14.65
2023-04-17T15:35:51.492Z,14.65
2023-04-17T15:36:51.513Z,14.43
2023-04-17T15:37:51.484Z,14.43
2023-04-17T15:38:51.503Z,14.43
2023-04-17T15:39:51.452Z,14.46
2023-04-17T15:40:51.452Z,14.47
2023-04-17T15:41:51.421Z,14.32
2023-04-17T15:42:51.423Z,14.39
2023-04-17T15:43:51.449Z,14.50
2023-04-17T15:44:51.400Z,14.52
2023-04-17T15:45:51.436Z,14.50
2023-04-17T15:46:51.368Z,14.52
2023-04-17T15:47:51.377Z,14.61
2023-04-17T15:49:04.866Z,14.50
2023-04-17T15:49:52.337Z,14.57
2023-04-17T15:50:51.322Z,14.52
2023-04-17T15:51:51.319Z,14.47
2023-04-17T15:52:51.309Z,14.68
2023-04-17T15:53:51.308Z,14.60
2023-04-17T15:54:51.283Z,14.52
2023-04-17T15:55:51.269Z,14.54
2023-04-17T15:56:51.260Z,14.60
2023-04-17T15:57:51.249Z,14.50
2023-04-17T15:58:51.252Z,14.50
2023-04-17T15:59:51.244Z,14.42
2023-04-17T16:00:51.210Z,14.52
2023-04-17T16:01:51.258Z,14.46
2023-04-17T16:02:51.330Z,14.46
2023-04-17T16:03:51.475Z,14.43
2023-04-17T16:04:51.177Z,14.36
2023-04-17T16:05:52.891Z,14.36
2023-04-17T16:06:51.142Z,14.43
2023-04-17T16:07:51.130Z,14.36
2023-04-17T16:08:51.134Z,14.25
2023-04-17T16:09:51.115Z,14.21
2023-04-17T16:10:51.121Z,14.10
2023-04-17T16:11:51.084Z,14.10
2023-04-17T16:12:51.082Z,14.10
2023-04-17T16:13:51.079Z,14.17
2023-04-17T16:14:51.063Z,14.21
2023-04-17T16:15:51.084Z,14.12
2023-04-17T16:16:51.042Z,14.09
2023-04-17T16:17:51.089Z,14.17
2023-04-17T16:18:51.022Z,14.20
2023-04-17T16:19:51.025Z,14.21
2023-04-17T16:20:50.987Z,14.32
2023-04-17T16:21:50.972Z,14.22
2023-04-17T16:22:50.963Z,14.18
2023-04-17T16:23:50.980Z,13.96
2023-04-17T16:24:50.965Z,14.02
2023-04-17T16:25:50.934Z,13.95
2023-04-17T16:26:50.918Z,13.92
2023-04-17T16:27:50.912Z,13.91
2023-04-17T16:28:50.890Z,13.87
2023-04-17T16:29:50.992Z,13.84
2023-04-17T16:30:50.877Z,13.79
2023-04-17T16:31:50.967Z,13.71
2023-04-17T16:32:50.882Z,13.81
2023-04-17T16:33:50.857Z,13.75
2023-04-17T16:34:50.853Z,13.67
2023-04-17T16:35:50.820Z,13.81
2023-04-17T16:36:50.810Z,13.81
2023-04-17T16:37:50.805Z,13.82
2023-04-17T16:38:50.777Z,13.77
2023-04-17T16:39:50.827Z,13.78
2023-04-17T16:40:50.808Z,13.71
2023-04-17T16:41:50.748Z,13.70
2023-04-17T16:42:50.757Z,13.69
2023-04-17T16:43:50.728Z,13.73
2023-04-17T16:44:50.749Z,13.71
2023-04-17T16:45:50.702Z,13.69
2023-04-17T16:47:09.981Z,13.66
2023-04-17T16:47:51.916Z,13.70
2023-04-17T16:48:50.816Z,13.60
2023-04-17T16:49:50.693Z,13.55
2023-04-17T16:50:50.652Z,13.69
2023-04-17T16:51:50.642Z,13.62
2023-04-17T16:52:50.654Z,13.57
2023-04-17T16:53:50.621Z,13.55
2023-04-17T16:54:50.629Z,13.63
2023-04-17T16:55:50.601Z,13.66
2023-04-17T16:56:50.586Z,13.52
2023-04-17T16:57:50.569Z,13.59
2023-04-17T16:58:50.562Z,13.52
2023-04-17T16:59:50.574Z,13.51
2023-04-17T17:00:50.609Z,13.59
2023-04-17T17:01:50.536Z,13.54
2023-04-17T17:02:50.654Z,13.51
2023-04-17T17:03:50.549Z,13.51
2023-04-17T17:04:50.520Z,13.49
2023-04-17T17:05:50.493Z,13.48
2023-04-17T17:06:50.471Z,13.45
2023-04-17T17:07:50.468Z,13.41
2023-04-17T17:08:50.443Z,13.48
2023-04-17T17:09:50.451Z,13.46
2023-04-17T17:10:50.422Z,13.45
2023-04-17T17:11:50.433Z,13.26
2023-04-17T17:12:50.404Z,13.32
2023-04-17T17:13:50.389Z,13.33
2023-04-17T17:14:50.395Z,13.45
2023-04-17T17:15:50.368Z,13.38
2023-04-17T17:16:50.408Z,13.44
2023-04-17T17:17:50.385Z,13.41
2023-04-17T17:18:50.339Z,13.46
2023-04-17T17:19:50.453Z,13.48
2023-04-17T17:20:50.313Z,13.55
2023-04-17T17:21:50.299Z,13.49
2023-04-17T17:22:50.287Z,13.49
2023-04-17T17:23:50.284Z,13.49
2023-04-17T17:24:50.314Z,13.44
2023-04-17T17:25:50.261Z,13.29
2023-04-17T17:26:50.248Z,13.46
2023-04-17T17:27:50.231Z,13.48
2023-04-17T17:28:50.226Z,13.46
2023-04-17T17:29:50.226Z,13.48
2023-04-17T17:30:50.219Z,13.54
2023-04-17T17:31:50.240Z,13.52
2023-04-17T17:32:50.191Z,13.59
2023-04-17T17:33:50.390Z,13.57
2023-04-17T17:34:50.186Z,13.54
2023-04-17T17:35:50.159Z,13.45
2023-04-17T17:36:50.138Z,13.54
2023-04-17T17:37:50.124Z,13.46
2023-04-17T17:38:50.113Z,13.51
2023-04-17T17:39:50.118Z,13.39
2023-04-17T17:40:50.089Z,13.30
2023-04-17T17:41:50.088Z,13.41
2023-04-17T17:42:50.067Z,13.32
2023-04-17T17:43:50.055Z,13.32
2023-04-17T17:44:50.269Z,13.12
2023-04-17T17:45:50.115Z,13.12
2023-04-17T17:46:50.025Z,13.22
2023-04-17T17:47:50.066Z,13.11
2023-04-17T17:48:50.001Z,13.11
2023-04-17T17:49:50.032Z,13.03
2023-04-17T17:50:49.980Z,12.90
2023-04-17T17:51:49.984Z,12.89
2023-04-17T17:52:49.970Z,12.87
2023-04-17T17:53:49.948Z,12.82
2023-04-17T17:54:49.979Z,12.78
2023-04-17T17:55:49.923Z,12.65
2023-04-17T17:56:49.920Z,12.65
2023-04-17T17:57:49.964Z,12.54
2023-04-17T17:58:49.897Z,12.53
2023-04-17T17:59:49.930Z,12.53
2023-04-17T18:00:49.872Z,12.46
2023-04-17T18:01:49.928Z,12.42
2023-04-17T18:02:49.959Z,12.45
2023-04-17T18:03:50.220Z,12.37
2023-04-17T18:04:49.974Z,12.29
2023-04-17T18:05:49.844Z,12.24
2023-04-17T18:06:49.806Z,12.19
2023-04-17T18:07:49.832Z,12.09
2023-04-17T18:08:49.776Z,12.10
2023-04-17T18:09:50.876Z,12.07
2023-04-17T18:10:49.753Z,12.12
2023-04-17T18:11:49.757Z,12.01
2023-04-17T18:12:49.753Z,11.91
2023-04-17T18:13:49.731Z,11.86
2023-04-17T18:14:49.725Z,11.83
2023-04-17T18:15:49.738Z,11.90
2023-04-17T18:16:49.710Z,11.82
2023-04-17T18:17:49.729Z,11.88
2023-04-17T18:18:49.667Z,11.85
2023-04-17T18:19:49.676Z,11.78
2023-04-17T18:20:49.649Z,11.80
2023-04-17T18:21:49.638Z,11.65
2023-04-17T18:22:49.635Z,11.61
2023-04-17T18:23:49.684Z,11.60
2023-04-17T18:24:49.631Z,11.47
2023-04-17T18:25:49.611Z,11.52
2023-04-17T18:26:49.585Z,11.36
2023-04-17T18:27:49.587Z,11.35
2023-04-17T18:28:49.560Z,11.33
2023-04-17T18:29:49.561Z,11.24
2023-04-17T18:30:49.607Z,11.11
2023-04-17T18:31:49.567Z,11.15
2023-04-17T18:32:49.551Z,11.03
2023-04-17T18:33:49.504Z,10.91
2023-04-17T18:34:49.512Z,10.88
2023-04-17T18:35:49.505Z,10.81
2023-04-17T18:36:49.466Z,10.76
2023-04-17T18:37:49.461Z,10.79
2023-04-17T18:38:49.444Z,10.85
2023-04-17T18:39:49.462Z,11.09
2023-04-17T18:40:49.430Z,11.11
2023-04-17T18:41:49.412Z,11.15
2023-04-17T18:42:49.403Z,11.25
2023-04-17T18:43:49.421Z,11.21
2023-04-17T18:44:49.472Z,11.18
2023-04-17T18:45:49.367Z,11.21
2023-04-17T18:46:49.391Z,11.14
2023-04-17T18:47:49.367Z,11.03
2023-04-17T18:48:49.337Z,11.02
2023-04-17T18:49:49.345Z,11.15
2023-04-17T18:50:49.318Z,11.15
2023-04-17T18:51:49.312Z,11.19
2023-04-17T18:52:51.210Z,11.28
2023-04-17T18:53:49.275Z,11.19
2023-04-17T18:54:49.546Z,11.21
2023-04-17T18:55:49.277Z,11.14
2023-04-17T18:56:49.257Z,11.03
2023-04-17T18:57:49.232Z,10.94
2023-04-17T18:58:49.223Z,10.97
2023-04-17T18:59:49.249Z,10.81
2023-04-17T19:00:49.242Z,10.84
2023-04-17T19:01:49.200Z,10.78
2023-04-17T19:02:49.322Z,10.78
2023-04-17T19:03:49.177Z,10.79
2023-04-17T19:04:49.241Z,10.74
2023-04-17T19:05:49.301Z,10.74
2023-04-17T19:06:49.137Z,10.76
2023-04-17T19:07:49.121Z,10.78
2023-04-17T19:08:49.118Z,10.64
2023-04-17T19:09:49.122Z,10.64
2023-04-17T19:10:49.088Z,10.48
2023-04-17T19:11:49.108Z,10.42
2023-04-17T19:12:49.061Z,10.60
2023-04-17T19:13:49.069Z,10.52
2023-04-17T19:14:49.055Z,10.52
2023-04-17T19:15:49.028Z,10.51
2023-04-17T19:16:49.185Z,10.40
2023-04-17T19:17:49.034Z,10.51
2023-04-17T19:18:48.999Z,10.44
2023-04-17T19:19:49.007Z,10.53
2023-04-17T19:20:48.984Z,10.53
2023-04-17T19:21:48.968Z,10.55
2023-04-17T19:22:48.963Z,10.53
2023-04-17T19:23:48.967Z,10.56
2023-04-17T19:24:48.951Z,10.53
2023-04-17T19:25:48.927Z,10.55
2023-04-17T19:26:48.910Z,10.40
2023-04-17T19:27:48.918Z,10.48
2023-04-17T19:28:48.882Z,10.40
2023-04-17T19:29:48.912Z,10.41
2023-04-17T19:30:48.862Z,10.40
2023-04-17T19:31:48.894Z,10.48
2023-04-17T19:32:48.858Z,10.44
2023-04-17T19:33:48.860Z,10.38
2023-04-17T19:34:48.850Z,10.26
2023-04-17T19:35:48.808Z,10.18
2023-04-17T19:36:48.798Z,10.29
2023-04-17T19:37:48.785Z,10.25
2023-04-17T19:38:48.774Z,10.20
2023-04-17T19:39:48.793Z,10.23
2023-04-17T19:40:48.747Z,10.23
2023-04-17T19:41:48.738Z,10.25
2023-04-17T19:42:48.726Z,10.22
2023-04-17T19:43:48.736Z,10.05
2023-04-17T19:44:48.730Z,10.01
2023-04-17T19:45:48.736Z,9.90
2023-04-17T19:46:48.699Z,9.93
2023-04-17T19:47:48.725Z,9.93
2023-04-17T19:48:48.659Z,9.91
2023-04-17T19:49:48.695Z,9.93
2023-04-17T19:50:48.653Z,9.93
2023-04-17T19:51:48.643Z,9.84
2023-04-17T19:52:48.615Z,9.81
2023-04-17T19:53:48.604Z,9.81
2023-04-17T19:54:48.614Z,9.81
2023-04-17T19:55:48.593Z,9.68
2023-04-17T19:56:48.576Z,9.68
2023-04-17T19:57:48.562Z,9.61
2023-04-17T19:58:48.546Z,9.66
2023-04-17T19:59:48.568Z,9.57
2023-04-17T20:00:48.584Z,9.74
2023-04-17T20:01:48.735Z,9.60
2023-04-17T20:02:48.613Z,9.61
2023-04-17T20:03:48.726Z,9.61
2023-04-17T20:04:48.499Z,9.65
2023-04-17T20:05:48.474Z,9.71
2023-04-17T20:06:48.462Z,9.68
2023-04-17T20:07:48.455Z,9.64
2023-04-17T20:08:48.441Z,9.68
2023-04-17T20:09:48.442Z,9.65
2023-04-17T20:10:48.428Z,9.50
2023-04-17T20:11:48.410Z,9.48
2023-04-17T20:12:48.394Z,9.60
2023-04-17T20:13:48.392Z,9.50
2023-04-17T20:14:49.549Z,9.48
2023-04-17T20:15:48.385Z,9.47
2023-04-17T20:16:48.397Z,9.51
2023-04-17T20:17:48.404Z,9.53
2023-04-17T20:18:48.325Z,9.50
2023-04-17T20:19:48.348Z,9.42
2023-04-17T20:20:48.324Z,9.46
2023-04-17T20:21:48.295Z,9.46
2023-04-17T20:22:48.283Z,9.38
2023-04-17T20:23:48.277Z,9.28
2023-04-17T20:24:48.290Z,9.26
2023-04-17T20:25:48.255Z,9.10
2023-04-17T20:26:48.250Z,9.14
2023-04-17T20:27:48.238Z,9.10
2023-04-17T20:28:48.227Z,8.99
2023-04-17T20:29:48.233Z,9.02
2023-04-17T20:30:48.201Z,9.05
2023-04-17T20:31:48.225Z,9.02
2023-04-17T20:32:48.286Z,8.98
2023-04-17T20:33:48.207Z,8.96
2023-04-17T20:34:48.199Z,8.83
2023-04-17T20:35:48.151Z,8.95
2023-04-17T20:36:48.127Z,8.91
2023-04-17T20:37:48.122Z,8.87
2023-04-17T20:38:48.133Z,8.95
2023-04-17T20:39:48.135Z,8.87
2023-04-17T20:40:48.093Z,8.96
2023-04-17T20:41:48.083Z,8.92
2023-04-17T20:42:48.072Z,8.83
2023-04-17T20:43:48.054Z,8.80
2023-04-17T20:44:48.056Z,8.77
2023-04-17T20:45:48.028Z,8.79
2023-04-17T20:46:48.125Z,8.66
2023-04-17T20:48:47.998Z,8.56
2023-04-17T20:49:48.017Z,8.47
2023-04-17T20:50:47.974Z,8.48
2023-04-17T20:51:47.974Z,8.41
2023-04-17T20:52:47.958Z,8.33
2023-04-17T20:53:47.940Z,8.33
2023-04-17T20:54:47.952Z,8.11
2023-04-17T20:55:47.923Z,8.25
2023-04-17T20:56:47.915Z,8.12
2023-04-17T20:57:47.911Z,8.11
2023-04-17T20:58:47.886Z,8.18
2023-04-17T20:59:47.887Z,8.33
2023-04-17T21:01:00.814Z,8.34
2023-04-17T21:01:48.882Z,8.30
2023-04-17T21:02:47.960Z,8.33
2023-04-17T21:03:48.009Z,8.33
2023-04-17T21:04:48.016Z,8.16
2023-04-17T21:05:47.799Z,8.16
2023-04-17T21:06:47.792Z,8.16
2023-04-17T21:07:49.484Z,8.18
2023-04-17T21:08:47.772Z,8.05
2023-04-17T21:09:47.776Z,8.02
2023-04-17T21:10:47.754Z,8.02
2023-04-17T21:11:47.751Z,7.98
2023-04-17T21:12:47.723Z,7.89
2023-04-17T21:13:47.712Z,7.85
2023-04-17T21:14:47.724Z,7.92
2023-04-17T21:15:47.718Z,7.83
2023-04-17T21:16:47.681Z,7.83
2023-04-17T21:17:47.966Z,7.86
2023-04-17T21:18:47.669Z,7.92
2023-04-17T21:19:47.697Z,7.92
2023-04-17T21:20:47.644Z,7.85
2023-04-17T21:21:47.621Z,7.89
2023-04-17T21:22:47.629Z,7.90
2023-04-17T21:23:47.604Z,7.89
2023-04-17T21:24:47.612Z,7.89
2023-04-17T21:25:47.583Z,7.82
2023-04-17T21:26:47.574Z,7.80
2023-04-17T21:27:47.572Z,7.69
2023-04-17T21:28:47.545Z,7.64
2023-04-17T21:29:47.560Z,7.61
2023-04-17T21:30:47.526Z,7.63
2023-04-17T21:31:47.542Z,7.49
2023-04-17T21:32:47.533Z,7.60
2023-04-17T21:33:47.489Z,7.46
2023-04-17T21:34:47.502Z,7.46
2023-04-17T21:35:47.491Z,7.48
2023-04-17T21:36:47.456Z,7.37
2023-04-17T21:37:47.446Z,7.32
2023-04-17T21:38:47.449Z,7.35
2023-04-17T21:39:47.450Z,7.30
2023-04-17T21:40:51.412Z,7.24
2023-04-17T21:41:47.407Z,7.28
2023-04-17T21:42:47.393Z,7.24
2023-04-17T21:43:47.387Z,7.30
2023-04-17T21:44:47.397Z,7.35
2023-04-17T21:45:47.445Z,7.30
2023-04-17T21:46:47.355Z,7.43
2023-04-17T21:47:47.383Z,7.45
2023-04-17T21:48:47.329Z,7.46
2023-04-17T21:49:47.335Z,7.60
2023-04-17T21:50:47.337Z,7.67
2023-04-17T21:51:47.332Z,7.57
2023-04-17T21:52:47.286Z,7.69
2023-04-17T21:53:47.272Z,7.63
2023-04-17T21:54:47.292Z,7.68
2023-04-17T21:55:47.259Z,7.50
2023-04-17T21:56:47.248Z,7.64
2023-04-17T21:57:47.244Z,7.50
2023-04-17T21:58:47.224Z,7.49
2023-04-17T21:59:47.241Z,7.52
2023-04-17T22:00:47.234Z,7.61
2023-04-17T22:01:47.189Z,7.64
2023-04-17T22:02:47.366Z,7.49
2023-04-17T22:03:47.178Z,7.49
2023-04-17T22:04:47.344Z,7.40
2023-04-17T22:05:47.151Z,7.35
2023-04-17T22:06:47.145Z,7.30
2023-04-17T22:07:54.438Z,7.23
2023-04-17T22:08:48.108Z,7.25
2023-04-17T22:09:47.122Z,7.20
2023-04-17T22:10:47.108Z,7.25
2023-04-17T22:11:47.078Z,7.13
2023-04-17T22:12:47.068Z,7.25
2023-04-17T22:13:47.128Z,7.12
2023-04-17T22:14:47.075Z,7.21
2023-04-17T22:15:47.034Z,7.10
2023-04-17T22:16:47.088Z,7.20
2023-04-17T22:17:47.113Z,7.10
2023-04-17T22:18:47.012Z,7.07
2023-04-17T22:19:47.017Z,7.20
2023-04-17T22:20:46.988Z,7.13
2023-04-17T22:21:46.972Z,7.07
2023-04-17T22:22:46.970Z,7.09
2023-04-17T22:23:46.982Z,7.09
2023-04-17T22:24:46.956Z,7.12
2023-04-17T22:25:46.941Z,7.02
2023-04-17T22:26:46.921Z,7.13
2023-04-17T22:27:46.911Z,7.12
2023-04-17T22:29:57.620Z,7.09
2023-04-17T22:30:57.640Z,7.12
2023-04-17T22:31:57.581Z,7.12
2023-04-17T22:32:57.589Z,7.17
2023-04-17T22:33:57.560Z,7.12
2023-04-17T22:34:57.566Z,7.15
2023-04-17T22:35:57.532Z,7.20
2023-04-17T22:36:57.537Z,7.12
2023-04-17T22:37:57.512Z,7.21
2023-04-17T22:38:57.531Z,7.23
2023-04-17T22:39:57.517Z,7.17
2023-04-17T22:40:57.504Z,7.21
2023-04-17T22:41:57.483Z,7.12
2023-04-17T22:42:57.461Z,7.15
2023-04-17T22:43:57.457Z,7.09
2023-04-17T22:44:57.459Z,7.15
2023-04-17T22:45:57.460Z,7.07
2023-04-17T22:46:57.414Z,6.98
2023-04-17T22:47:57.529Z,7.13
2023-04-17T22:48:57.390Z,6.92
2023-04-17T22:49:57.403Z,6.94
2023-04-17T22:50:57.367Z,6.91
2023-04-17T22:51:57.369Z,6.95
2023-04-17T22:52:57.359Z,6.81
2023-04-17T22:53:57.877Z,6.81
2023-04-17T22:54:57.385Z,6.87
2023-04-17T22:55:57.319Z,6.74
2023-04-17T22:56:57.313Z,6.76
2023-04-17T22:57:57.300Z,6.76
2023-04-17T22:58:57.277Z,6.70
2023-04-17T22:59:57.289Z,6.66
2023-04-17T23:00:57.272Z,6.66
2023-04-17T23:01:57.553Z,6.64
2023-04-17T23:02:57.337Z,6.62
2023-04-17T23:03:57.261Z,6.56
2023-04-17T23:04:57.325Z,6.43
2023-04-17T23:05:57.236Z,6.44
2023-04-17T23:08:09.429Z,6.43
2023-04-17T23:09:09.412Z,6.40
2023-04-17T23:10:09.438Z,6.40
2023-04-17T23:11:09.381Z,6.33
2023-04-17T23:12:09.385Z,6.31
2023-04-17T23:13:09.364Z,6.31
2023-04-17T23:14:09.351Z,6.27
2023-04-17T23:15:09.361Z,6.17
2023-04-17T23:16:09.400Z,6.11
2023-04-17T23:17:09.322Z,6.11
2023-04-17T23:18:09.319Z,6.12
2023-04-17T23:19:09.316Z,6.00
2023-04-17T23:20:09.300Z,6.03
2023-04-17T23:21:09.271Z,5.94
2023-04-17T23:22:09.404Z,5.93
2023-04-17T23:23:09.247Z,5.96
2023-04-17T23:24:09.232Z,6.00
2023-04-17T23:25:09.253Z,5.89
2023-04-17T23:26:09.229Z,5.94
2023-04-17T23:27:09.198Z,5.79
2023-04-17T23:28:09.195Z,5.83
2023-04-17T23:29:09.184Z,5.83
2023-04-17T23:30:09.186Z,5.74
2023-04-17T23:31:09.189Z,5.74
2023-04-17T23:32:09.159Z,5.71
2023-04-17T23:33:09.146Z,5.72
2023-04-17T23:34:09.130Z,5.72
2023-04-17T23:35:09.124Z,5.57
2023-04-17T23:36:09.117Z,5.67
2023-04-17T23:37:09.097Z,5.57
2023-04-17T23:38:09.092Z,5.54
2023-04-17T23:39:09.081Z,5.57
2023-04-17T23:40:09.089Z,5.45
2023-04-17T23:41:09.053Z,5.46
2023-04-17T23:42:09.059Z,5.46
2023-04-17T23:43:09.035Z,5.48
2023-04-17T23:44:09.024Z,5.56
2023-04-17T23:45:09.026Z,5.48
2023-04-17T23:46:09.031Z,5.45
2023-04-17T23:47:09.005Z,5.42
2023-04-17T23:48:08.986Z,5.48
2023-04-17T23:49:09.020Z,5.43
2023-04-17T23:50:08.974Z,5.43
2023-04-17T23:51:08.961Z,5.46
2023-04-17T23:52:08.934Z,5.38
2023-04-17T23:53:08.927Z,5.36
2023-04-17T23:54:08.925Z,5.43
2023-04-17T23:55:08.910Z,5.40
2023-04-17T23:56:08.888Z,5.39
2023-04-17T23:57:08.881Z,5.38
2023-04-17T23:58:08.880Z,5.30
2023-04-17T23:59:08.848Z,5.45
